This is the latest recevied weather packets stored in our database for station/object KC5DP. If no packets are shown the sender has not sent any weather packets the latest 10 day(s).
| Time | Temp. | Humidity | Pressure | Rain* | Wind** | Luminosity | Snow |
|---|---|---|---|---|---|---|---|
| 1777825206 | 22.78° C | 42% | 1022.2 hPa | 0 mm | - | 708 W/m² | - |
| 1777824902 | 22.78° C | 43% | 1022.2 hPa | 0 mm | - | 699 W/m² | - |
| 1777824598 | 23.33° C | 38% | 1022.4 hPa | 0 mm | - | 686 W/m² | - |
| 1777824295 | 23.33° C | 39% | 1022.3 hPa | 0 mm | - | 681 W/m² | - |
| 1777823990 | 22.78° C | 42% | 1022.3 hPa | 0 mm | - | 669 W/m² | - |
| 1777823688 | 22.22° C | 41% | 1022.3 hPa | 0 mm | - | 659 W/m² | - |
| 1777823384 | 22.78° C | 41% | 1022.1 hPa | 0 mm | - | 648 W/m² | - |
| 1777823083 | 23.33° C | 41% | 1022.4 hPa | 0 mm | - | 639 W/m² | - |
| 1777822780 | 23.33° C | 45% | 1022.2 hPa | 0 mm | - | 628 W/m² | - |
| 1777822478 | 21.67° C | 47% | 1022.4 hPa | 0 mm | - | 589 W/m² | - |
| 1777822175 | 21.67° C | 47% | 1022.4 hPa | 0 mm | - | 589 W/m² | - |
| 1777821872 | 21.67° C | 47% | 1022.4 hPa | 0 mm | - | 589 W/m² | - |
| 1777821569 | 22.22° C | 48% | 1022.3 hPa | 0 mm | - | 562 W/m² | - |
| 1777821268 | 22.22° C | 48% | 1022.3 hPa | 0 mm | - | 562 W/m² | - |
| 1777820964 | 21.67° C | 53% | 1022.1 hPa | 0 mm | - | 551 W/m² | - |
| 1777820661 | 21.67° C | 52% | 1022.4 hPa | 0 mm | - | 536 W/m² | - |
| 1777820357 | 21.67° C | 57% | 1022.1 hPa | 0 mm | - | 524 W/m² | - |
| 1777820055 | 21.67° C | 52% | 1022.2 hPa | 0 mm | - | 509 W/m² | - |
| 1777819751 | 21.11° C | 57% | 1022.1 hPa | 0 mm | - | 494 W/m² | - |
| 1777819450 | 20.56° C | 57% | 1022.2 hPa | 0 mm | - | 479 W/m² | - |
| 1777819147 | 20.56° C | 62% | 1022.2 hPa | 0 mm | - | 465 W/m² | - |
| 1777818843 | 21.67° C | 59% | 1022.1 hPa | 0 mm | - | 452 W/m² | - |
| 1777818539 | 21.11° C | 59% | 1022 hPa | 0 mm | - | 436 W/m² | - |
| 1777818237 | 20.56° C | 59% | 1022.1 hPa | 0 mm | - | 420 W/m² | - |
| 1777817933 | 20° C | 59% | 1022.1 hPa | 0 mm | - | 405 W/m² | - |
* Rain latest hour (hover to see other rain measurements)
** Current wind speed in m/s (hover to see current wind gust speed)